createdAt,value
2019-04-11T00:02:10.554Z,3.92
2019-04-11T00:04:42.039Z,3.83
2019-04-11T00:07:14.236Z,3.82
2019-04-11T00:09:45.210Z,3.79
2019-04-11T00:12:16.616Z,3.78
2019-04-11T00:14:48.388Z,3.75
2019-04-11T00:17:19.573Z,3.72
2019-04-11T00:19:51.553Z,3.70
2019-04-11T00:22:25.454Z,3.70
2019-04-11T00:24:56.480Z,3.75
2019-04-11T00:27:28.856Z,3.71
2019-04-11T00:29:59.761Z,3.65
2019-04-11T00:32:32.075Z,3.64
2019-04-11T00:35:03.695Z,3.65
2019-04-11T00:37:36.838Z,3.63
2019-04-11T00:40:09.004Z,3.64
2019-04-11T00:42:40.853Z,3.64
2019-04-11T00:45:13.599Z,3.70
2019-04-11T00:47:45.629Z,3.56
2019-04-11T00:50:16.412Z,3.54
2019-04-11T00:52:51.666Z,3.53
2019-04-11T00:55:23.731Z,3.47
2019-04-11T00:57:57.416Z,3.47
2019-04-11T01:00:29.170Z,3.47
2019-04-11T01:03:00.132Z,3.43
2019-04-11T01:05:31.788Z,3.32
2019-04-11T01:08:03.134Z,3.30
2019-04-11T01:10:34.561Z,3.28
2019-04-11T01:13:08.920Z,3.27
2019-04-11T01:15:45.486Z,3.28
2019-04-11T01:18:18.038Z,3.20
2019-04-11T01:20:49.886Z,3.16
2019-04-11T01:23:20.778Z,3.16
2019-04-11T01:25:52.744Z,3.17
2019-04-11T01:28:24.783Z,3.14
2019-04-11T01:31:06.510Z,3.14
2019-04-11T01:33:37.987Z,3.09
2019-04-11T01:36:12.669Z,3.13
2019-04-11T01:38:51.208Z,3.18
2019-04-11T01:41:24.649Z,3.10
2019-04-11T01:44:00.762Z,3.05
2019-04-11T01:46:31.976Z,3.01
2019-04-11T01:49:10.196Z,3.03
2019-04-11T01:51:42.156Z,3.01
2019-04-11T01:54:17.500Z,2.94
2019-04-11T01:56:49.455Z,2.91
2019-04-11T01:59:21.508Z,3.01
2019-04-11T02:02:21.230Z,3.10
2019-04-11T02:05:05.039Z,3.08
2019-04-11T02:07:36.552Z,3.05
2019-04-11T02:10:08.550Z,3.13
2019-04-11T02:12:39.556Z,3.06
2019-04-11T02:15:12.321Z,3.09
2019-04-11T02:17:43.347Z,3.14
2019-04-11T02:20:22.995Z,3.17
2019-04-11T02:23:15.326Z,3.12
2019-04-11T02:26:09.926Z,3.02
2019-04-11T02:28:42.359Z,2.97
2019-04-11T02:31:13.888Z,2.95
2019-04-11T02:33:46.856Z,3.00
2019-04-11T02:36:20.722Z,3.03
2019-04-11T02:38:59.065Z,3.05
2019-04-11T02:41:29.948Z,3.02
2019-04-11T02:44:01.497Z,3.03
2019-04-11T02:46:42.566Z,2.97
2019-04-11T02:49:10.296Z,3.04
2019-04-11T02:51:44.866Z,2.97
2019-04-11T02:54:16.030Z,2.98
2019-04-11T02:56:50.434Z,2.94
2019-04-11T02:59:25.218Z,2.93
2019-04-11T03:01:58.033Z,2.89
2019-04-11T03:04:30.978Z,2.91
2019-04-11T03:07:03.926Z,2.98
2019-04-11T03:09:35.320Z,2.96
2019-04-11T03:12:07.436Z,2.96
2019-04-11T03:15:01.086Z,2.95
2019-04-11T03:17:19.652Z,2.86
2019-04-11T03:19:59.598Z,2.79
2019-04-11T03:22:20.264Z,2.79
2019-04-11T03:24:53.439Z,2.76
2019-04-11T03:27:28.155Z,2.81
2019-04-11T03:30:00.209Z,2.74
2019-04-11T03:33:17.026Z,2.79
2019-04-11T03:36:07.010Z,2.70
2019-04-11T03:38:12.427Z,2.68
2019-04-11T03:40:45.896Z,2.69
2019-04-11T03:43:11.773Z,2.60
2019-04-11T03:45:48.009Z,2.59
2019-04-11T03:48:20.419Z,2.64
2019-04-11T03:50:39.316Z,2.70
2019-04-11T03:53:11.638Z,2.73
2019-04-11T03:55:43.363Z,2.70
2019-04-11T03:58:15.499Z,2.68
2019-04-11T04:00:50.545Z,2.60
2019-04-11T04:03:20.343Z,2.60
2019-04-11T04:05:55.278Z,2.59
2019-04-11T04:08:29.700Z,2.53
2019-04-11T04:11:08.666Z,2.45
2019-04-11T04:13:45.518Z,2.36
2019-04-11T04:16:44.418Z,2.41
2019-04-11T04:19:35.109Z,2.38
2019-04-11T04:22:11.329Z,2.35
2019-04-11T04:24:46.855Z,2.34
2019-04-11T04:27:19.972Z,2.38
2019-04-11T04:29:55.846Z,2.42
2019-04-11T04:32:25.140Z,2.51
2019-04-11T04:34:56.429Z,2.46
2019-04-11T04:37:29.594Z,2.44
2019-04-11T04:40:19.004Z,2.39
2019-04-11T04:42:42.261Z,2.36
2019-04-11T04:45:10.176Z,2.39
2019-04-11T04:47:47.740Z,2.31
2019-04-11T04:50:15.463Z,2.25
2019-04-11T04:52:46.810Z,2.27
2019-04-11T04:55:19.290Z,2.29
2019-04-11T04:57:51.168Z,2.34
2019-04-11T05:00:23.392Z,2.30
2019-04-11T05:02:55.044Z,2.28
2019-04-11T05:05:35.651Z,2.31
2019-04-11T05:08:08.182Z,2.34
2019-04-11T05:10:40.338Z,2.34
2019-04-11T05:13:12.986Z,2.36
2019-04-11T05:15:46.496Z,2.42
2019-04-11T05:18:20.200Z,2.49
2019-04-11T05:20:50.758Z,2.52
2019-04-11T05:23:22.039Z,2.56
2019-04-11T05:25:53.111Z,2.60
2019-04-11T05:28:25.475Z,2.68
2019-04-11T05:30:56.349Z,2.78
2019-04-11T05:33:27.734Z,2.85
2019-04-11T05:35:58.644Z,2.91
2019-04-11T05:38:29.478Z,3.10
2019-04-11T05:41:00.160Z,3.18
2019-04-11T05:43:36.618Z,3.28
2019-04-11T05:46:21.941Z,3.52
2019-04-11T05:48:47.146Z,3.85
2019-04-11T05:51:21.256Z,4.13
2019-04-11T05:53:54.179Z,4.43
2019-04-11T05:56:29.825Z,4.58
2019-04-11T05:59:10.219Z,4.82
2019-04-11T06:01:45.144Z,4.98
2019-04-11T06:04:30.178Z,5.25
2019-04-11T06:07:32.760Z,5.20
2019-04-11T06:10:11.192Z,5.17
2019-04-11T06:12:56.814Z,5.63
2019-04-11T06:15:31.668Z,5.92
2019-04-11T06:18:05.368Z,6.04
2019-04-11T06:20:47.250Z,6.26
2019-04-11T06:23:41.453Z,6.72
2019-04-11T06:26:47.502Z,7.04
2019-04-11T06:29:26.840Z,7.33
2019-04-11T06:32:15.922Z,7.79
2019-04-11T06:34:52.317Z,7.74
2019-04-11T06:37:58.292Z,7.77
2019-04-11T06:40:35.154Z,8.07
2019-04-11T06:43:34.174Z,8.36
2019-04-11T06:46:33.375Z,8.27
2019-04-11T06:49:28.944Z,8.82
2019-04-11T06:52:02.208Z,8.85
2019-04-11T06:54:41.370Z,9.11
2019-04-11T06:57:16.431Z,9.23
2019-04-11T06:59:48.411Z,9.45
2019-04-11T07:02:21.392Z,9.69
2019-04-11T07:04:53.993Z,10.09
2019-04-11T07:07:28.723Z,10.67
2019-04-11T07:10:04.085Z,10.66
2019-04-11T07:13:00.686Z,10.60
2019-04-11T07:15:39.808Z,10.50
2019-04-11T07:18:29.076Z,11.03
2019-04-11T07:21:06.219Z,11.39
2019-04-11T07:23:55.564Z,11.94
2019-04-11T07:26:45.843Z,12.52
2019-04-11T07:29:50.788Z,12.28
2019-04-11T07:32:25.718Z,12.84
2019-04-11T07:35:22.581Z,13.00
2019-04-11T07:37:58.259Z,13.66
2019-04-11T07:40:58.989Z,14.93
2019-04-11T07:43:33.530Z,14.49
2019-04-11T07:46:25.201Z,15.21
2019-04-11T07:49:06.394Z,15.71
2019-04-11T07:51:48.724Z,15.16
2019-04-11T07:54:25.770Z,15.80
2019-04-11T07:57:17.548Z,14.87
2019-04-11T08:00:19.371Z,15.41
2019-04-11T08:03:14.460Z,14.64
2019-04-11T08:06:22.393Z,14.88
2019-04-11T08:09:13.194Z,14.75
2019-04-11T08:11:52.931Z,15.08
2019-04-11T08:14:43.186Z,15.08
2019-04-11T08:17:42.367Z,14.17
2019-04-11T08:20:29.095Z,15.15
2019-04-11T08:23:03.515Z,14.20
2019-04-11T08:26:01.890Z,15.13
2019-04-11T08:28:34.049Z,16.32
2019-04-11T08:31:28.761Z,15.84
2019-04-11T08:34:02.897Z,14.70
2019-04-11T08:37:01.620Z,13.65
2019-04-11T08:39:37.403Z,13.43
2019-04-11T08:42:33.718Z,13.80
2019-04-11T08:45:06.584Z,13.67
2019-04-11T08:47:47.623Z,14.50
2019-04-11T08:50:20.668Z,15.32
2019-04-11T08:53:08.766Z,14.88
2019-04-11T08:55:55.692Z,15.43
2019-04-11T08:58:40.680Z,15.99
2019-04-11T09:01:13.778Z,15.75
2019-04-11T09:04:10.005Z,18.07
2019-04-11T09:06:40.971Z,17.58
2019-04-11T09:09:31.404Z,17.53
2019-04-11T09:12:04.495Z,16.27
2019-04-11T09:15:00.294Z,16.89
2019-04-11T09:17:38.675Z,18.95
2019-04-11T09:20:38.206Z,17.47
2019-04-11T09:23:14.371Z,18.93
2019-04-11T09:26:20.190Z,17.04
2019-04-11T09:28:53.704Z,16.92
2019-04-11T09:31:43.882Z,17.87
2019-04-11T09:34:41.897Z,19.12
2019-04-11T09:37:25.726Z,19.72
2019-04-11T09:40:19.507Z,20.05
2019-04-11T09:43:07.833Z,21.50
2019-04-11T09:45:57.727Z,22.57
2019-04-11T09:48:46.358Z,22.38
2019-04-11T09:51:40.109Z,20.87
2019-04-11T09:54:42.483Z,21.00
2019-04-11T09:57:24.746Z,22.78
2019-04-11T10:00:27.096Z,25.64
2019-04-11T10:03:19.667Z,26.93
2019-04-11T10:06:36.610Z,25.28
2019-04-11T10:09:17.290Z,26.24
2019-04-11T10:12:40.303Z,26.04
2019-04-11T10:15:13.434Z,23.52
2019-04-11T10:18:03.188Z,26.15
2019-04-11T10:20:34.964Z,24.97
2019-04-11T10:23:29.220Z,25.45
2019-04-11T10:26:03.546Z,25.66
2019-04-11T10:29:00.667Z,25.30
2019-04-11T10:31:34.618Z,25.43
2019-04-11T10:34:15.669Z,24.92
2019-04-11T10:36:55.996Z,26.11
2019-04-11T10:39:43.800Z,27.27
2019-04-11T10:42:15.447Z,27.49
2019-04-11T10:45:05.103Z,28.19
2019-04-11T10:47:36.743Z,28.30
2019-04-11T10:50:26.710Z,27.67
2019-04-11T10:53:00.634Z,25.93
2019-04-11T10:55:47.098Z,26.65
2019-04-11T10:58:21.183Z,27.69
2019-04-11T11:01:09.540Z,28.25
2019-04-11T11:03:55.800Z,26.52
2019-04-11T11:06:29.588Z,28.13
2019-04-11T11:09:22.289Z,28.27
2019-04-11T11:12:12.650Z,29.29
2019-04-11T11:15:03.074Z,30.28
2019-04-11T11:18:29.623Z,30.26
2019-04-11T11:20:42.998Z,30.25
2019-04-11T11:23:20.458Z,29.09
2019-04-11T11:26:03.112Z,26.79
2019-04-11T11:28:36.663Z,28.24
2019-04-11T11:31:27.910Z,29.58
2019-04-11T11:34:00.764Z,28.37
2019-04-11T11:36:55.047Z,25.83
2019-04-11T11:39:49.117Z,21.27
2019-04-11T11:42:50.863Z,24.94
2019-04-11T11:45:49.153Z,29.63
2019-04-11T11:48:35.404Z,28.50
2019-04-11T11:51:22.684Z,30.64
2019-04-11T11:54:05.261Z,28.37
2019-04-11T11:56:38.097Z,24.60
2019-04-11T11:59:23.093Z,24.88
2019-04-11T12:01:57.990Z,21.92
2019-04-11T12:04:46.598Z,24.15
2019-04-11T12:07:22.994Z,27.29
2019-04-11T12:10:11.742Z,27.40
2019-04-11T12:13:04.387Z,27.89
2019-04-11T12:15:49.019Z,29.50
2019-04-11T12:18:49.807Z,31.21
2019-04-11T12:21:26.478Z,25.21
2019-04-11T12:24:30.136Z,20.64
2019-04-11T12:27:20.692Z,23.55
2019-04-11T12:30:21.032Z,21.67
2019-04-11T12:32:59.233Z,20.16
2019-04-11T12:35:40.115Z,22.65
2019-04-11T12:38:31.129Z,24.34
2019-04-11T12:41:26.780Z,26.77
2019-04-11T12:44:16.576Z,26.25
2019-04-11T12:47:18.815Z,25.49
2019-04-11T12:50:08.021Z,26.11
2019-04-11T12:52:45.992Z,26.93
2019-04-11T12:55:22.308Z,28.47
2019-04-11T12:58:10.931Z,27.09
2019-04-11T13:00:55.592Z,26.15
2019-04-11T13:03:44.253Z,25.47
2019-04-11T13:06:34.604Z,27.17
2019-04-11T13:09:31.891Z,27.89
2019-04-11T13:12:03.341Z,27.31
2019-04-11T13:14:50.944Z,26.28
2019-04-11T13:17:25.840Z,27.66
2019-04-11T13:20:33.707Z,28.33
2019-04-11T13:23:12.745Z,28.79
2019-04-11T13:26:20.992Z,26.67
2019-04-11T13:28:58.805Z,26.46
2019-04-11T13:31:46.740Z,28.67
2019-04-11T13:34:17.872Z,26.98
2019-04-11T13:37:16.524Z,27.02
2019-04-11T13:39:52.890Z,25.59
2019-04-11T13:42:42.587Z,22.05
2019-04-11T13:45:14.359Z,23.16
2019-04-11T13:48:03.014Z,24.05
2019-04-11T13:50:34.925Z,23.59
2019-04-11T13:53:23.591Z,23.32
2019-04-11T13:55:54.319Z,25.87
2019-04-11T13:59:03.383Z,26.03
2019-04-11T14:01:36.772Z,25.29
2019-04-11T14:04:13.260Z,23.26
2019-04-11T14:06:44.512Z,21.19
2019-04-11T14:09:33.283Z,21.10
2019-04-11T14:12:09.629Z,23.26
2019-04-11T14:14:48.771Z,23.41
2019-04-11T14:17:50.751Z,22.44
2019-04-11T14:20:41.785Z,22.40
2019-04-11T14:23:34.772Z,21.84
2019-04-11T14:26:28.839Z,20.95
2019-04-11T14:29:18.969Z,19.38
2019-04-11T14:31:53.835Z,17.92
2019-04-11T14:34:54.483Z,20.68
2019-04-11T14:37:38.293Z,21.98
2019-04-11T14:40:24.125Z,21.50
2019-04-11T14:43:16.152Z,22.66
2019-04-11T14:46:06.893Z,21.88
2019-04-11T14:48:43.731Z,21.97
2019-04-11T14:51:47.288Z,21.88
2019-04-11T14:54:20.791Z,21.54
2019-04-11T14:57:17.604Z,20.49
2019-04-11T14:59:53.815Z,18.14
2019-04-11T15:02:44.359Z,18.77
2019-04-11T15:05:35.269Z,19.43
2019-04-11T15:08:07.069Z,17.38
2019-04-11T15:10:52.368Z,18.03
2019-04-11T15:13:27.110Z,18.13
2019-04-11T15:16:32.229Z,17.64
2019-04-11T15:19:03.922Z,17.56
2019-04-11T15:22:06.899Z,17.78
2019-04-11T15:24:38.195Z,17.66
2019-04-11T15:27:38.513Z,17.08
2019-04-11T15:30:11.490Z,16.70
2019-04-11T15:33:17.860Z,16.12
2019-04-11T15:35:49.978Z,15.16
2019-04-11T15:38:38.779Z,14.85
2019-04-11T15:41:10.175Z,14.42
2019-04-11T15:43:59.008Z,14.17
2019-04-11T15:46:33.526Z,13.67
2019-04-11T15:49:30.345Z,13.43
2019-04-11T15:52:11.709Z,13.12
2019-04-11T15:55:02.293Z,12.97
2019-04-11T15:57:44.765Z,13.02
2019-04-11T16:00:44.496Z,13.12
2019-04-11T16:03:24.508Z,13.04
2019-04-11T16:06:12.686Z,12.91
2019-04-11T16:08:48.404Z,12.65
2019-04-11T16:11:53.267Z,12.55
2019-04-11T16:14:36.169Z,12.38
2019-04-11T16:17:42.423Z,12.51
2019-04-11T16:20:19.248Z,12.29
2019-04-11T16:23:08.931Z,12.28
2019-04-11T16:25:43.599Z,12.14
2019-04-11T16:28:42.394Z,11.96
2019-04-11T16:31:14.055Z,12.07
2019-04-11T16:34:01.958Z,12.20
2019-04-11T16:36:53.674Z,11.99
2019-04-11T16:39:49.972Z,11.85
2019-04-11T16:42:25.881Z,11.63
2019-04-11T16:45:25.088Z,11.57
2019-04-11T16:48:04.625Z,11.62
2019-04-11T16:50:35.600Z,11.69
2019-04-11T16:53:10.433Z,11.75
2019-04-11T16:55:43.203Z,11.72
2019-04-11T16:58:17.047Z,11.49
2019-04-11T17:00:52.067Z,11.46
2019-04-11T17:03:19.362Z,11.51
2019-04-11T17:06:02.189Z,11.32
2019-04-11T17:08:37.856Z,11.15
2019-04-11T17:11:11.611Z,11.10
2019-04-11T17:13:42.372Z,11.08
2019-04-11T17:16:17.991Z,11.09
2019-04-11T17:18:50.437Z,10.99
2019-04-11T17:21:23.214Z,10.87
2019-04-11T17:23:53.761Z,10.82
2019-04-11T17:26:25.242Z,10.79
2019-04-11T17:28:56.120Z,10.72
2019-04-11T17:31:26.856Z,10.62
2019-04-11T17:34:01.410Z,10.52
2019-04-11T17:36:30.802Z,10.51
2019-04-11T17:39:07.692Z,10.41
2019-04-11T17:41:41.799Z,10.46
2019-04-11T17:44:12.259Z,11.47
2019-04-11T17:46:43.944Z,12.20
2019-04-11T17:49:14.660Z,11.59
2019-04-11T17:51:55.274Z,11.07
2019-04-11T17:54:18.060Z,10.75
2019-04-11T17:56:49.002Z,10.51
2019-04-11T17:59:19.750Z,10.34
2019-04-11T18:01:50.444Z,10.18
2019-04-11T18:04:21.157Z,9.97
2019-04-11T18:06:51.914Z,9.94
2019-04-11T18:09:25.689Z,9.88
2019-04-11T18:11:56.229Z,9.77
2019-04-11T18:14:31.005Z,9.72
2019-04-11T18:17:03.859Z,9.63
2019-04-11T18:19:33.884Z,9.60
2019-04-11T18:22:08.015Z,9.54
2019-04-11T18:24:39.349Z,9.54
2019-04-11T18:27:10.004Z,9.51
2019-04-11T18:29:40.898Z,9.61
2019-04-11T18:32:11.646Z,9.57
2019-04-11T18:34:42.673Z,9.55
2019-04-11T18:37:13.408Z,9.48
2019-04-11T18:39:45.460Z,9.34
2019-04-11T18:42:16.137Z,9.33
2019-04-11T18:44:47.010Z,9.21
2019-04-11T18:47:17.979Z,9.06
2019-04-11T18:49:50.937Z,8.97
2019-04-11T18:52:24.912Z,8.95
2019-04-11T18:54:53.698Z,8.88
2019-04-11T18:57:25.906Z,8.88
2019-04-11T18:59:58.004Z,8.78
2019-04-11T19:02:28.689Z,8.73
2019-04-11T19:05:02.055Z,8.66
2019-04-11T19:07:31.862Z,8.53
2019-04-11T19:10:02.613Z,8.50
2019-04-11T19:12:34.928Z,8.43
2019-04-11T19:15:06.862Z,8.38
2019-04-11T19:17:37.616Z,8.30
2019-04-11T19:20:09.173Z,8.26
2019-04-11T19:22:39.849Z,8.14
2019-04-11T19:25:12.084Z,8.06
2019-04-11T19:27:43.059Z,8.05
2019-04-11T19:30:14.020Z,8.00
2019-04-11T19:32:44.734Z,7.92
2019-04-11T19:35:15.380Z,7.87
2019-04-11T19:37:46.037Z,7.81
2019-04-11T19:40:17.312Z,7.75
2019-04-11T19:42:49.229Z,7.64
2019-04-11T19:45:20.515Z,7.59
2019-04-11T19:47:52.285Z,7.52
2019-04-11T19:50:23.625Z,7.49
2019-04-11T19:52:54.435Z,7.41
2019-04-11T19:55:39.113Z,7.38
2019-04-11T19:58:20.400Z,7.31
2019-04-11T20:00:53.905Z,7.30
2019-04-11T20:03:24.735Z,7.20
2019-04-11T20:05:58.211Z,7.16
2019-04-11T20:08:29.289Z,7.13
2019-04-11T20:11:01.355Z,7.14
2019-04-11T20:13:32.870Z,7.03
2019-04-11T20:16:03.895Z,6.97
2019-04-11T20:18:34.557Z,6.91
2019-04-11T20:21:07.560Z,6.93
2019-04-11T20:23:41.424Z,6.94
2019-04-11T20:26:12.842Z,6.91
2019-04-11T20:28:43.834Z,6.83
2019-04-11T20:31:14.606Z,6.82
2019-04-11T20:33:45.453Z,6.80
2019-04-11T20:36:16.141Z,6.72
2019-04-11T20:38:46.864Z,6.66
2019-04-11T20:41:17.785Z,6.69
2019-04-11T20:43:48.615Z,6.59
2019-04-11T20:46:19.430Z,6.58
2019-04-11T20:48:50.070Z,6.53
2019-04-11T20:51:21.577Z,6.44
2019-04-11T20:53:52.380Z,6.38
2019-04-11T20:56:25.367Z,6.33
2019-04-11T20:58:56.204Z,6.28
2019-04-11T21:01:27.811Z,6.20
2019-04-11T21:04:00.333Z,6.19
2019-04-11T21:06:37.798Z,6.14
2019-04-11T21:09:12.599Z,6.11
2019-04-11T21:11:43.391Z,6.10
2019-04-11T21:14:14.717Z,6.08
2019-04-11T21:16:45.359Z,6.08
2019-04-11T21:19:16.067Z,5.97
2019-04-11T21:21:47.966Z,5.97
2019-04-11T21:24:18.819Z,5.97
2019-04-11T21:26:49.580Z,5.98
2019-04-11T21:29:20.324Z,5.99
2019-04-11T21:31:51.085Z,5.97
2019-04-11T21:34:21.863Z,6.01
2019-04-11T21:36:52.859Z,5.97
2019-04-11T21:39:23.694Z,5.98
2019-04-11T21:41:57.891Z,5.89
2019-04-11T21:44:28.584Z,5.92
2019-04-11T21:47:00.982Z,5.95
2019-04-11T21:49:36.671Z,5.99
2019-04-11T21:52:05.725Z,5.96
2019-04-11T21:54:36.500Z,5.90
2019-04-11T21:57:08.107Z,5.86
2019-04-11T21:59:38.798Z,5.82
2019-04-11T22:02:11.901Z,5.84
2019-04-11T22:04:42.639Z,5.81
2019-04-11T22:07:13.288Z,5.77
2019-04-11T22:09:43.949Z,5.79
2019-04-11T22:12:14.662Z,5.75
2019-04-11T22:14:49.395Z,5.74
2019-04-11T22:17:21.120Z,5.68
2019-04-11T22:19:54.644Z,5.67
2019-04-11T22:22:25.486Z,5.70
2019-04-11T22:24:56.232Z,5.80
2019-04-11T22:27:27.278Z,5.84
2019-04-11T22:29:58.010Z,5.89
2019-04-11T22:32:28.933Z,5.84
2019-04-11T22:35:01.510Z,5.75
2019-04-11T22:37:32.247Z,5.78
2019-04-11T22:40:04.884Z,5.79
2019-04-11T22:42:35.650Z,5.78
2019-04-11T22:45:08.516Z,5.76
2019-04-11T22:47:39.903Z,5.74
2019-04-11T22:50:10.827Z,5.70
2019-04-11T22:52:42.231Z,5.72
2019-04-11T22:55:13.486Z,5.71
2019-04-11T22:57:44.545Z,5.75
2019-04-11T23:00:15.942Z,5.78
2019-04-11T23:03:04.572Z,5.78
2019-04-11T23:05:35.432Z,5.84
2019-04-11T23:08:08.077Z,5.87
2019-04-11T23:10:41.616Z,5.92
2019-04-11T23:13:15.473Z,5.97
2019-04-11T23:15:45.069Z,5.97
2019-04-11T23:18:16.139Z,5.95
2019-04-11T23:20:49.102Z,5.97
2019-04-11T23:23:20.196Z,5.97
2019-04-11T23:25:50.964Z,6.02
2019-04-11T23:28:21.823Z,6.02
2019-04-11T23:30:54.448Z,6.10
2019-04-11T23:33:25.265Z,6.08
2019-04-11T23:35:56.547Z,6.12
2019-04-11T23:38:27.178Z,6.22
2019-04-11T23:40:57.944Z,6.17
2019-04-11T23:43:28.696Z,6.23
2019-04-11T23:45:59.554Z,6.25
2019-04-11T23:48:30.747Z,6.24
2019-04-11T23:51:02.608Z,6.24
2019-04-11T23:53:33.713Z,6.25
2019-04-11T23:56:04.485Z,6.22
2019-04-11T23:58:35.200Z,6.24
